createdAt,value
2023-05-08T00:01:42.086Z,100717.41
2023-05-08T00:04:09.940Z,100721.16
2023-05-08T00:06:37.888Z,100715.88
2023-05-08T00:09:05.947Z,100721.25
2023-05-08T00:11:34.085Z,100713.06
2023-05-08T00:14:01.907Z,100716.53
2023-05-08T00:16:29.920Z,100704.03
2023-05-08T00:18:57.720Z,100706.81
2023-05-08T00:21:25.537Z,100713.94
2023-05-08T00:23:53.312Z,100706.13
2023-05-08T00:26:21.829Z,100714.31
2023-05-08T00:28:49.562Z,100703.09
2023-05-08T00:31:17.377Z,100722.59
2023-05-08T00:33:45.264Z,100715.56
2023-05-08T00:36:15.678Z,100724.41
2023-05-08T00:38:43.788Z,100730.59
2023-05-08T00:41:11.584Z,100726.06
2023-05-08T00:43:40.074Z,100732.22
2023-05-08T00:46:09.988Z,100726.72
2023-05-08T00:48:39.778Z,100717.88
2023-05-08T00:51:09.539Z,100729.41
2023-05-08T00:53:44.453Z,100738.28
2023-05-08T00:56:15.365Z,100723.53
2023-05-08T00:58:44.648Z,100729.13
2023-05-08T01:01:12.955Z,100734.44
2023-05-08T01:03:41.499Z,100738.16
2023-05-08T01:06:09.430Z,100741.63
2023-05-08T01:08:37.398Z,100734.44
2023-05-08T01:11:21.734Z,100745.94
2023-05-08T01:14:25.078Z,100747.19
2023-05-08T01:17:11.751Z,100744.06
2023-05-08T01:20:21.476Z,100742.63
2023-05-08T01:23:21.115Z,100752.63
2023-05-08T01:26:42.138Z,100747.94
2023-05-08T01:29:33.993Z,100753.94
2023-05-08T01:32:15.749Z,100757.69
2023-05-08T01:34:47.793Z,100749.06
2023-05-08T01:37:23.156Z,100747.47
2023-05-08T01:40:13.187Z,100749.50
2023-05-08T01:42:58.004Z,100751.06
2023-05-08T01:45:39.176Z,100751.06
2023-05-08T01:48:16.952Z,100758.00
2023-05-08T01:50:52.707Z,100753.38
2023-05-08T01:53:28.617Z,100751.56
2023-05-08T01:56:08.063Z,100749.72
2023-05-08T01:58:37.458Z,100748.84
2023-05-08T02:01:06.038Z,100743.41
2023-05-08T02:03:35.119Z,100755.09
2023-05-08T02:06:04.483Z,100752.34
2023-05-08T02:08:34.574Z,100754.19
2023-05-08T02:11:06.024Z,100757.81
2023-05-08T02:13:36.331Z,100760.50
2023-05-08T02:16:06.964Z,100759.72
2023-05-08T02:18:35.820Z,100756.00
2023-05-08T02:21:06.959Z,100746.00
2023-05-08T02:23:35.853Z,100764.09
2023-05-08T02:26:05.564Z,100754.94
2023-05-08T02:28:34.626Z,100760.22
2023-05-08T02:31:03.137Z,100760.22
2023-05-08T02:33:31.953Z,100752.34
2023-05-08T02:36:00.658Z,100761.00
2023-05-08T02:38:31.780Z,100766.19
2023-05-08T02:41:03.922Z,100764.56
2023-05-08T02:43:32.169Z,100761.28
2023-05-08T02:46:46.743Z,100772.06
2023-05-08T02:49:54.765Z,100767.91
2023-05-08T02:52:30.799Z,100770.41
2023-05-08T02:55:11.676Z,100767.81
2023-05-08T02:57:42.059Z,100771.34
2023-05-08T03:00:31.319Z,100774.91
2023-05-08T03:03:08.304Z,100769.72
2023-05-08T03:05:39.472Z,100765.22
2023-05-08T03:08:16.052Z,100764.16
2023-05-08T03:10:49.418Z,100760.50
2023-05-08T03:13:20.929Z,100766.56
2023-05-08T03:15:56.210Z,100771.69
2023-05-08T03:18:52.211Z,100760.03
2023-05-08T03:21:22.787Z,100766.13
2023-05-08T03:23:53.874Z,100765.16
2023-05-08T03:26:22.249Z,100766.13
2023-05-08T03:28:52.461Z,100758.97
2023-05-08T03:31:24.297Z,100766.03
2023-05-08T03:33:55.443Z,100758.84
2023-05-08T03:36:27.087Z,100766.81
2023-05-08T03:38:55.298Z,100761.66
2023-05-08T03:41:26.924Z,100765.44
2023-05-08T03:43:56.032Z,100753.78
2023-05-08T03:46:25.855Z,100770.47
2023-05-08T03:48:54.347Z,100767.78
2023-05-08T03:51:22.547Z,100779.22
2023-05-08T03:53:50.891Z,100773.75
2023-05-08T03:56:19.490Z,100776.44
2023-05-08T03:59:29.360Z,100775.56
2023-05-08T04:02:30.707Z,100778.28
2023-05-08T04:05:42.916Z,100779.22
2023-05-08T04:08:29.739Z,100776.66
2023-05-08T04:11:18.065Z,100762.97
2023-05-08T04:13:51.800Z,100781.53
2023-05-08T04:16:26.895Z,100773.75
2023-05-08T04:19:03.887Z,100786.06
2023-05-08T04:21:35.435Z,100786.34
2023-05-08T04:24:10.205Z,100780.22
2023-05-08T04:26:38.828Z,100780.44
2023-05-08T04:29:07.451Z,100786.19
2023-05-08T04:31:38.762Z,100785.22
2023-05-08T04:34:14.426Z,100792.16
2023-05-08T04:36:44.726Z,100790.41
2023-05-08T04:39:12.698Z,100799.25
2023-05-08T04:41:42.603Z,100781.66
2023-05-08T04:44:11.500Z,100793.00
2023-05-08T04:46:39.330Z,100790.50
2023-05-08T04:49:07.404Z,100787.91
2023-05-08T04:51:35.732Z,100791.34
2023-05-08T04:54:05.399Z,100794.75
2023-05-08T04:56:33.180Z,100795.59
2023-05-08T04:59:07.296Z,100799.09
2023-05-08T05:01:35.313Z,100796.38
2023-05-08T05:04:03.787Z,100808.78
2023-05-08T05:06:33.190Z,100805.22
2023-05-08T05:09:01.642Z,100811.38
2023-05-08T05:11:31.579Z,100810.63
2023-05-08T05:13:59.879Z,100809.84
2023-05-08T05:16:27.967Z,100818.41
2023-05-08T05:18:55.955Z,100814.97
2023-05-08T05:21:23.700Z,100811.38
2023-05-08T05:23:52.531Z,100821.81
2023-05-08T05:26:23.315Z,100823.81
2023-05-08T05:28:52.872Z,100822.66
2023-05-08T05:31:20.930Z,100817.19
2023-05-08T05:33:50.671Z,100823.94
2023-05-08T05:36:19.284Z,100824.00
2023-05-08T05:38:48.645Z,100820.75
2023-05-08T05:41:16.472Z,100833.16
2023-05-08T05:43:48.596Z,100834.13
2023-05-08T05:46:16.490Z,100833.25
2023-05-08T05:48:44.376Z,100826.41
2023-05-08T05:51:12.348Z,100837.88
2023-05-08T05:53:43.499Z,100834.41
2023-05-08T05:56:11.473Z,100838.91
2023-05-08T05:58:40.966Z,100833.72
2023-05-08T06:01:10.467Z,100844.22
2023-05-08T06:03:45.906Z,100849.59
2023-05-08T06:06:14.546Z,100844.22
2023-05-08T06:08:42.285Z,100843.34
2023-05-08T06:11:10.195Z,100850.97
2023-05-08T06:13:42.473Z,100849.91
2023-05-08T06:16:10.289Z,100844.59
2023-05-08T06:18:38.083Z,100853.31
2023-05-08T06:21:12.020Z,100856.88
2023-05-08T06:23:39.791Z,100863.97
2023-05-08T06:26:07.472Z,100861.19
2023-05-08T06:28:38.760Z,100857.63
2023-05-08T06:31:09.050Z,100855.91
2023-05-08T06:33:36.859Z,100864.66
2023-05-08T06:36:06.835Z,100856.47
2023-05-08T06:38:34.676Z,100857.50
2023-05-08T06:41:03.956Z,100861.66
2023-05-08T06:43:31.787Z,100861.66
2023-05-08T06:46:01.528Z,100855.41
2023-05-08T06:48:36.311Z,100852.81
2023-05-08T06:51:07.442Z,100857.94
2023-05-08T06:53:37.061Z,100861.66
2023-05-08T06:56:07.712Z,100851.56
2023-05-08T06:58:37.158Z,100850.69
2023-05-08T07:01:04.953Z,100861.22
2023-05-08T07:03:32.812Z,100861.22
2023-05-08T07:06:00.497Z,100863.72
2023-05-08T07:08:32.175Z,100868.16
2023-05-08T07:10:59.947Z,100868.03
2023-05-08T07:13:28.629Z,100856.56
2023-05-08T07:16:01.162Z,100857.53
2023-05-08T07:18:28.924Z,100872.38
2023-05-08T07:20:58.297Z,100872.28
2023-05-08T07:23:27.509Z,100873.03
2023-05-08T07:25:55.399Z,100869.41
2023-05-08T07:28:23.280Z,100871.31
2023-05-08T07:30:51.617Z,100876.72
2023-05-08T07:33:21.459Z,100880.38
2023-05-08T07:35:49.436Z,100879.34
2023-05-08T07:38:17.338Z,100881.91
2023-05-08T07:40:47.774Z,100881.13
2023-05-08T07:43:15.537Z,100885.59
2023-05-08T07:45:43.292Z,100886.06
2023-05-08T07:48:11.871Z,100888.59
2023-05-08T07:50:39.690Z,100878.66
2023-05-08T07:53:14.082Z,100886.81
2023-05-08T07:55:42.215Z,100888.47
2023-05-08T07:58:10.053Z,100889.28
2023-05-08T08:00:37.883Z,100902.56
2023-05-08T08:03:06.196Z,100889.78
2023-05-08T08:05:34.658Z,100887.53
2023-05-08T08:08:02.686Z,100889.97
2023-05-08T08:10:32.396Z,100894.28
2023-05-08T08:13:08.547Z,100890.53
2023-05-08T08:15:36.305Z,100895.94
2023-05-08T08:18:06.824Z,100885.13
2023-05-08T08:20:34.630Z,100883.19
2023-05-08T08:23:10.821Z,100897.94
2023-05-08T08:25:40.828Z,100894.47
2023-05-08T08:28:08.962Z,100896.59
2023-05-08T08:30:39.717Z,100896.38
2023-05-08T08:33:10.776Z,100893.00
2023-05-08T08:35:40.706Z,100900.91
2023-05-08T08:38:11.513Z,100888.97
2023-05-08T08:40:42.636Z,100883.56
2023-05-08T08:43:13.420Z,100899.38
2023-05-08T08:45:41.218Z,100890.97
2023-05-08T08:48:12.422Z,100883.75
2023-05-08T08:50:44.319Z,100889.91
2023-05-08T08:53:17.606Z,100896.19
2023-05-08T08:55:50.388Z,100895.31
2023-05-08T08:58:28.105Z,100896.06
2023-05-08T09:00:56.374Z,100896.25
2023-05-08T09:03:24.287Z,100904.84
2023-05-08T09:06:01.445Z,100896.44
2023-05-08T09:08:37.535Z,100893.53
2023-05-08T09:11:05.374Z,100900.88
2023-05-08T09:13:33.369Z,100899.03
2023-05-08T09:16:03.564Z,100900.66
2023-05-08T09:18:36.144Z,100895.25
2023-05-08T09:21:06.913Z,100899.31
2023-05-08T09:23:54.240Z,100897.56
2023-05-08T09:26:40.350Z,100902.00
2023-05-08T09:29:13.586Z,100904.88
2023-05-08T09:31:44.630Z,100898.44
2023-05-08T09:34:28.489Z,100894.66
2023-05-08T09:37:20.559Z,100906.00
2023-05-08T09:39:50.087Z,100903.31
2023-05-08T09:42:19.542Z,100902.56
2023-05-08T09:44:53.449Z,100916.22
2023-05-08T09:47:27.038Z,100920.75
2023-05-08T09:50:04.827Z,100919.59
2023-05-08T09:52:35.364Z,100918.59
2023-05-08T09:55:10.836Z,100919.16
2023-05-08T09:58:01.829Z,100918.09
2023-05-08T10:00:30.026Z,100922.53
2023-05-08T10:03:02.483Z,100925.97
2023-05-08T10:05:37.235Z,100918.09
2023-05-08T10:08:23.645Z,100925.22
2023-05-08T10:10:54.693Z,100926.28
2023-05-08T10:13:29.664Z,100927.50
2023-05-08T10:16:04.579Z,100928.44
2023-05-08T10:18:37.938Z,100923.69
2023-05-08T10:21:10.825Z,100918.19
2023-05-08T10:23:39.944Z,100925.44
2023-05-08T10:26:16.005Z,100912.69
2023-05-08T10:29:01.430Z,100922.00
2023-05-08T10:31:36.409Z,100920.81
2023-05-08T10:34:07.376Z,100931.13
2023-05-08T10:36:37.377Z,100917.31
2023-05-08T10:39:06.129Z,100913.44
2023-05-08T10:41:37.094Z,100920.06
2023-05-08T10:44:08.191Z,100917.16
2023-05-08T10:46:53.094Z,100922.13
2023-05-08T10:50:06.264Z,100919.31
2023-05-08T10:52:54.932Z,100910.78
2023-05-08T10:55:31.737Z,100915.09
2023-05-08T10:58:09.914Z,100920.66
2023-05-08T11:00:52.358Z,100912.84
2023-05-08T11:03:31.322Z,100911.34
2023-05-08T11:06:02.380Z,100901.72
2023-05-08T11:08:31.748Z,100908.41
2023-05-08T11:11:03.846Z,100910.03
2023-05-08T11:13:56.778Z,100909.50
2023-05-08T11:17:03.371Z,100906.91
2023-05-08T11:19:34.015Z,100905.50
2023-05-08T11:22:23.553Z,100909.06
2023-05-08T11:25:12.876Z,100903.34
2023-05-08T11:27:49.963Z,100902.56
2023-05-08T11:30:42.906Z,100898.44
2023-05-08T11:33:14.552Z,100898.56
2023-05-08T11:35:55.981Z,100899.31
2023-05-08T11:38:28.858Z,100899.34
2023-05-08T11:41:09.316Z,100905.28
2023-05-08T11:44:09.130Z,100898.47
2023-05-08T11:46:56.933Z,100905.16
2023-05-08T11:49:29.493Z,100894.75
2023-05-08T11:52:00.295Z,100884.47
2023-05-08T11:54:31.533Z,100896.53
2023-05-08T11:57:01.855Z,100889.03
2023-05-08T11:59:35.378Z,100880.84
2023-05-08T12:04:44.575Z,100874.44
2023-05-08T12:07:14.268Z,100883.31
2023-05-08T12:09:42.313Z,100891.94
2023-05-08T12:12:10.101Z,100889.88
2023-05-08T12:14:39.889Z,100889.53
2023-05-08T12:17:09.646Z,100878.81
2023-05-08T12:19:39.308Z,100886.81
2023-05-08T12:22:10.575Z,100883.91
2023-05-08T12:24:39.420Z,100894.41
2023-05-08T12:27:07.331Z,100888.38
2023-05-08T12:29:37.637Z,100889.31
2023-05-08T12:32:05.558Z,100886.13
2023-05-08T12:34:36.004Z,100872.22
2023-05-08T12:37:07.390Z,100885.28
2023-05-08T12:39:40.341Z,100868.03
2023-05-08T12:42:08.094Z,100867.31
2023-05-08T12:44:35.865Z,100873.47
2023-05-08T12:47:12.568Z,100868.03
2023-05-08T12:49:40.355Z,100869.03
2023-05-08T12:52:14.050Z,100868.91
2023-05-08T12:54:48.536Z,100867.91
2023-05-08T12:57:19.760Z,100874.31
2023-05-08T12:59:47.589Z,100865.59
2023-05-08T13:02:24.147Z,100868.16
2023-05-08T13:04:59.995Z,100857.81
2023-05-08T13:07:34.262Z,100871.22
2023-05-08T13:10:05.854Z,100870.25
2023-05-08T13:12:34.565Z,100868.31
2023-05-08T13:15:05.115Z,100873.59
2023-05-08T13:17:33.127Z,100867.06
2023-05-08T13:20:00.870Z,100862.63
2023-05-08T13:22:28.708Z,100849.81
2023-05-08T13:24:56.364Z,100864.84
2023-05-08T13:27:24.333Z,100855.00
2023-05-08T13:29:55.554Z,100866.25
2023-05-08T13:32:30.277Z,100866.00
2023-05-08T13:35:00.276Z,100853.19
2023-05-08T13:37:28.858Z,100853.06
2023-05-08T13:39:58.661Z,100861.19
2023-05-08T13:42:26.514Z,100865.41
2023-05-08T13:44:54.269Z,100864.63
2023-05-08T13:47:22.137Z,100853.28
2023-05-08T13:49:50.349Z,100856.88
2023-05-08T13:52:20.083Z,100850.72
2023-05-08T13:54:47.864Z,100855.00
2023-05-08T13:57:17.655Z,100842.44
2023-05-08T13:59:45.415Z,100832.72
2023-05-08T14:02:15.739Z,100839.34
2023-05-08T14:04:43.737Z,100826.88
2023-05-08T14:07:13.083Z,100847.88
2023-05-08T14:09:40.944Z,100842.34
2023-05-08T14:12:08.848Z,100836.56
2023-05-08T14:14:36.794Z,100832.00
2023-05-08T14:17:05.735Z,100835.31
2023-05-08T14:19:40.092Z,100821.38
2023-05-08T14:22:10.157Z,100836.59
2023-05-08T14:24:38.029Z,100833.41
2023-05-08T14:27:06.056Z,100840.44
2023-05-08T14:29:36.591Z,100831.81
2023-05-08T14:32:05.553Z,100828.19
2023-05-08T14:34:33.538Z,100829.47
2023-05-08T14:37:01.243Z,100816.94
2023-05-08T14:39:30.917Z,100817.94
2023-05-08T14:44:34.898Z,100816.59
2023-05-08T14:47:06.767Z,100811.16
2023-05-08T14:49:38.790Z,100822.00
2023-05-08T14:52:09.208Z,100807.09
2023-05-08T14:54:41.518Z,100815.31
2023-05-08T14:57:09.421Z,100816.09
2023-05-08T14:59:39.803Z,100809.03
2023-05-08T15:02:13.500Z,100815.47
2023-05-08T15:04:42.503Z,100820.88
2023-05-08T15:07:11.589Z,100813.72
2023-05-08T15:09:39.596Z,100810.53
2023-05-08T15:12:08.934Z,100821.59
2023-05-08T15:14:36.833Z,100816.31
2023-05-08T15:17:05.167Z,100814.34
2023-05-08T15:19:33.055Z,100811.75
2023-05-08T15:22:01.122Z,100807.31
2023-05-08T15:24:28.856Z,100800.78
2023-05-08T15:26:56.662Z,100801.03
2023-05-08T15:29:31.730Z,100806.81
2023-05-08T15:31:59.736Z,100800.41
2023-05-08T15:34:32.438Z,100805.97
2023-05-08T15:37:00.885Z,100804.75
2023-05-08T15:39:34.397Z,100807.22
2023-05-08T15:42:02.219Z,100815.22
2023-05-08T15:44:41.684Z,100813.88
2023-05-08T15:47:19.472Z,100817.03
2023-05-08T15:49:48.945Z,100808.31
2023-05-08T15:52:18.782Z,100813.97
2023-05-08T15:54:47.568Z,100822.09
2023-05-08T15:57:16.012Z,100815.31
2023-05-08T15:59:43.874Z,100814.69
2023-05-08T16:02:11.649Z,100828.13
2023-05-08T16:04:39.899Z,100826.75
2023-05-08T16:07:07.922Z,100828.22
2023-05-08T16:09:36.083Z,100818.59
2023-05-08T16:12:04.086Z,100832.66
2023-05-08T16:14:32.069Z,100837.34
2023-05-08T16:16:59.865Z,100826.88
2023-05-08T16:19:27.820Z,100829.06
2023-05-08T16:21:55.628Z,100834.38
2023-05-08T16:24:23.744Z,100832.66
2023-05-08T16:26:51.682Z,100832.66
2023-05-08T16:29:22.392Z,100824.00
2023-05-08T16:31:50.554Z,100819.94
2023-05-08T16:34:41.851Z,100824.25
2023-05-08T16:37:42.780Z,100816.06
2023-05-08T16:40:13.051Z,100814.47
2023-05-08T16:42:40.862Z,100809.16
2023-05-08T16:45:09.294Z,100813.63
2023-05-08T16:47:38.849Z,100814.84
2023-05-08T16:50:08.724Z,100822.63
2023-05-08T16:52:36.776Z,100812.00
2023-05-08T16:55:04.915Z,100809.53
2023-05-08T16:57:32.731Z,100826.41
2023-05-08T17:00:02.152Z,100806.25
2023-05-08T17:02:32.787Z,100824.16
2023-05-08T17:05:00.619Z,100810.22
2023-05-08T17:07:28.346Z,100798.59
2023-05-08T17:09:57.657Z,100809.09
2023-05-08T17:12:25.470Z,100814.63
2023-05-08T17:15:13.050Z,100819.81
2023-05-08T17:18:15.748Z,100814.00
2023-05-08T17:20:43.897Z,100808.84
2023-05-08T17:23:13.088Z,100814.84
2023-05-08T17:25:43.755Z,100807.72
2023-05-08T17:28:13.716Z,100810.31
2023-05-08T17:30:41.546Z,100811.69
2023-05-08T17:33:09.419Z,100816.34
2023-05-08T17:35:37.252Z,100825.03
2023-05-08T17:38:07.264Z,100812.91
2023-05-08T17:40:36.797Z,100826.56
2023-05-08T17:43:10.538Z,100816.97
2023-05-08T17:45:38.937Z,100823.25
2023-05-08T17:48:06.929Z,100819.13
2023-05-08T17:50:35.357Z,100822.72
2023-05-08T17:53:03.050Z,100824.66
2023-05-08T17:55:31.717Z,100832.16
2023-05-08T17:57:59.728Z,100835.97
2023-05-08T18:00:27.460Z,100838.16
2023-05-08T18:02:55.436Z,100834.69
2023-05-08T18:05:23.368Z,100833.41
2023-05-08T18:07:53.943Z,100824.66
2023-05-08T18:10:21.989Z,100832.25
2023-05-08T18:12:49.827Z,100837.78
2023-05-08T18:15:17.612Z,100833.06
2023-05-08T18:17:45.436Z,100827.97
2023-05-08T18:20:13.445Z,100837.81
2023-05-08T18:22:41.681Z,100828.22
2023-05-08T18:25:09.705Z,100823.16
2023-05-08T18:27:43.819Z,100825.28
2023-05-08T18:30:19.856Z,100820.53
2023-05-08T18:32:48.115Z,100829.84
2023-05-08T18:35:17.793Z,100829.31
2023-05-08T18:37:48.689Z,100826.09
2023-05-08T18:40:17.063Z,100819.81
2023-05-08T18:42:44.839Z,100828.47
2023-05-08T18:45:14.410Z,100834.97
2023-05-08T18:47:49.035Z,100831.59
2023-05-08T18:50:18.151Z,100827.19
2023-05-08T18:52:53.539Z,100840.72
2023-05-08T18:55:27.424Z,100839.19
2023-05-08T18:58:11.497Z,100849.88
2023-05-08T19:00:39.959Z,100852.81
2023-05-08T19:03:07.866Z,100854.56
2023-05-08T19:05:36.311Z,100837.66
2023-05-08T19:08:04.453Z,100841.88
2023-05-08T19:10:32.375Z,100840.91
2023-05-08T19:13:04.093Z,100834.63
2023-05-08T19:15:38.903Z,100823.63
2023-05-08T19:18:09.605Z,100833.00
2023-05-08T19:20:41.115Z,100835.72
2023-05-08T19:23:14.907Z,100835.94
2023-05-08T19:25:45.741Z,100840.25
2023-05-08T19:28:15.446Z,100840.50
2023-05-08T19:30:45.057Z,100839.84
2023-05-08T19:33:19.072Z,100846.09
2023-05-08T19:35:48.768Z,100839.28
2023-05-08T19:38:17.023Z,100840.28
2023-05-08T19:40:56.403Z,100845.75
2023-05-08T19:43:26.728Z,100847.72
2023-05-08T19:45:56.049Z,100843.19
2023-05-08T19:48:25.983Z,100848.91
2023-05-08T19:50:55.068Z,100838.22
2023-05-08T19:53:23.814Z,100833.78
2023-05-08T19:55:51.932Z,100839.56
2023-05-08T19:58:19.858Z,100838.81
2023-05-08T20:03:19.259Z,100840.22
2023-05-08T20:05:53.802Z,100838.69
2023-05-08T20:08:23.918Z,100846.25
2023-05-08T20:10:55.655Z,100845.41
2023-05-08T20:13:25.359Z,100846.88
2023-05-08T20:15:55.548Z,100847.00
2023-05-08T20:18:23.622Z,100839.09
2023-05-08T20:20:51.692Z,100846.53
2023-05-08T20:23:19.807Z,100855.50
2023-05-08T20:25:50.589Z,100859.28
2023-05-08T20:28:22.325Z,100855.91
2023-05-08T20:30:52.856Z,100859.47
2023-05-08T20:35:55.020Z,100846.41
2023-05-08T20:38:24.778Z,100847.47
2023-05-08T20:40:55.834Z,100850.28
2023-05-08T20:43:26.757Z,100847.69
2023-05-08T20:45:56.467Z,100832.53
2023-05-08T20:48:24.571Z,100836.09
2023-05-08T20:50:52.885Z,100835.25
2023-05-08T20:53:26.119Z,100828.84
2023-05-08T20:56:01.948Z,100823.56
2023-05-08T20:58:30.524Z,100830.44
2023-05-08T21:00:58.451Z,100830.88
2023-05-08T21:03:26.394Z,100825.69
2023-05-08T21:05:57.032Z,100814.38
2023-05-08T21:08:26.597Z,100824.13
2023-05-08T21:10:54.499Z,100820.66
2023-05-08T21:13:22.357Z,100818.91
2023-05-08T21:15:51.086Z,100814.50
2023-05-08T21:18:19.100Z,100809.22
2023-05-08T21:20:50.338Z,100813.72
2023-05-08T21:23:19.485Z,100809.28
2023-05-08T21:25:48.432Z,100808.44
2023-05-08T21:28:19.067Z,100809.41
2023-05-08T21:30:48.176Z,100812.22
2023-05-08T21:33:16.065Z,100806.03
2023-05-08T21:35:46.829Z,100804.31
2023-05-08T21:38:17.590Z,100814.25
2023-05-08T21:40:45.654Z,100812.81
2023-05-08T21:43:14.427Z,100803.75
2023-05-08T21:45:42.397Z,100808.09
2023-05-08T21:48:10.370Z,100798.34
2023-05-08T21:50:38.289Z,100803.84
2023-05-08T21:53:06.651Z,100798.53
2023-05-08T21:55:34.773Z,100798.66
2023-05-08T21:58:02.787Z,100795.09
2023-05-08T22:00:32.916Z,100798.66
2023-05-08T22:03:01.106Z,100798.75
2023-05-08T22:05:29.300Z,100800.47
2023-05-08T22:07:57.395Z,100794.34
2023-05-08T22:10:26.007Z,100792.28
2023-05-08T22:12:54.009Z,100785.03
2023-05-08T22:15:29.557Z,100780.63
2023-05-08T22:17:59.607Z,100786.03
2023-05-08T22:20:27.910Z,100776.19
2023-05-08T22:22:55.998Z,100776.94
2023-05-08T22:25:25.191Z,100780.50
2023-05-08T22:27:53.372Z,100775.03
2023-05-08T22:30:21.444Z,100768.66
2023-05-08T22:32:56.088Z,100774.91
2023-05-08T22:35:26.834Z,100768.84
2023-05-08T22:37:57.380Z,100770.81
2023-05-08T22:40:26.109Z,100764.72
2023-05-08T22:42:58.914Z,100760.31
2023-05-08T22:45:27.578Z,100758.59
2023-05-08T22:47:56.029Z,100755.88
2023-05-08T22:50:23.899Z,100751.53
2023-05-08T22:52:52.064Z,100747.13
2023-05-08T22:55:20.134Z,100739.34
2023-05-08T22:57:48.025Z,100726.44
2023-05-08T23:00:16.480Z,100750.22
2023-05-08T23:02:44.365Z,100739.06
2023-05-08T23:05:12.685Z,100738.03
2023-05-08T23:07:41.693Z,100742.56
2023-05-08T23:10:10.533Z,100732.69
2023-05-08T23:12:38.454Z,100730.13
2023-05-08T23:15:07.855Z,100724.91
2023-05-08T23:17:36.072Z,100728.50
2023-05-08T23:20:05.807Z,100718.09
2023-05-08T23:22:34.030Z,100728.88
2023-05-08T23:25:04.451Z,100724.69
2023-05-08T23:27:32.519Z,100712.66
2023-05-08T23:30:01.072Z,100720.81
2023-05-08T23:32:29.178Z,100723.22
2023-05-08T23:34:57.608Z,100721.16
2023-05-08T23:37:25.386Z,100711.25
2023-05-08T23:39:53.173Z,100708.84
2023-05-08T23:42:20.880Z,100714.34
2023-05-08T23:44:48.605Z,100709.88
2023-05-08T23:47:18.756Z,100709.88
2023-05-08T23:49:49.512Z,100703.44
2023-05-08T23:52:17.608Z,100701.72
2023-05-08T23:54:45.622Z,100691.03
2023-05-08T23:57:13.493Z,100682.00
2023-05-08T23:59:41.175Z,100691.59
